Time;durP1;ratioP1;P1;durP2;ratioP2;P2;SDS_P1;SDS_P2;PMS_P1;PMS_P2;Temp;Humidity;BMP_temperature;BMP_pressure;BME280_temperature;BME280_humidity;BME280_pressure;Samples;Min_cycle;Max_cycle;Signal;HPM_P1;HPM_P2
2022/05/31 00:01:47;;;;;;;;;10.75;10.00;;;;;18.75;47.77;98653.56;5028258;28;45275;-64
2022/05/31 00:04:12;;;;;;;;;10.50;9.75;;;;;18.75;47.76;98647.38;5021929;28;45403;-64
2022/05/31 00:06:39;;;;;;;;;9.00;7.25;;;;;18.75;47.76;98644.69;5024069;28;45513;-64
2022/05/31 00:09:04;;;;;;;;;5.75;5.75;;;;;18.74;48.24;98651.00;5017600;28;45472;-64
2022/05/31 00:11:30;;;;;;;;;7.75;7.75;;;;;18.72;48.26;98658.28;5018374;28;45551;-64
2022/05/31 00:13:55;;;;;;;;;9.75;9.00;;;;;18.70;48.39;98654.91;5031695;28;45457;-65
2022/05/31 00:16:21;;;;;;;;;9.25;9.25;;;;;18.68;48.42;98662.19;5034531;28;45347;-64
2022/05/31 00:18:46;;;;;;;;;8.75;8.75;;;;;18.66;48.59;98666.78;5017151;28;46447;-64
2022/05/31 00:21:12;;;;;;;;;12.50;11.25;;;;;18.64;48.87;98669.56;5027450;28;45191;-64
2022/05/31 00:23:40;;;;;;;;;10.75;10.75;;;;;18.64;48.53;98671.41;5017369;28;45440;-64
2022/05/31 00:26:06;;;;;;;;;9.00;9.00;;;;;18.61;48.92;98667.16;5022554;28;45465;-64
2022/05/31 00:28:32;;;;;;;;;9.00;9.00;;;;;18.57;48.89;98663.00;5017600;28;45514;-64
2022/05/31 00:30:58;;;;;;;;;9.00;9.00;;;;;18.54;48.62;98678.44;5025356;28;45437;-64
2022/05/31 00:33:25;;;;;;;;;8.25;8.25;;;;;18.49;48.97;98671.63;5029245;28;45435;-63
2022/05/31 00:35:51;;;;;;;;;9.75;9.00;;;;;18.46;49.08;98666.53;5023965;28;45381;-64
2022/05/31 00:38:17;;;;;;;;;12.00;10.00;;;;;18.45;49.14;98672.81;5019746;28;46739;-64
2022/05/31 00:40:43;;;;;;;;;9.00;9.00;;;;;18.44;48.96;98679.13;5024731;28;45464;-64
2022/05/31 00:43:12;;;;;;;;;10.00;9.00;;;;;18.42;49.18;98688.25;5029290;28;45334;-64
2022/05/31 00:45:37;;;;;;;;;10.00;7.25;;;;;18.42;49.27;98685.59;5035524;28;45515;-64
2022/05/31 00:48:08;;;;;;;;;9.75;9.75;;;;;18.39;48.98;98686.69;5014871;28;46758;-64
2022/05/31 00:50:57;;;;;;;;;10.25;9.75;;;;;18.37;49.34;98688.63;5017923;28;45398;-64
2022/05/31 00:53:29;;;;;;;;;12.50;12.25;;;;;18.36;49.74;98684.25;5036227;28;45464;-64
2022/05/31 00:55:59;;;;;;;;;11.25;10.00;;;;;18.31;49.88;98691.75;5034172;28;45453;-64
2022/05/31 00:58:42;;;;;;;;;9.25;8.25;;;;;18.30;50.14;98695.41;5036702;28;46571;-64
2022/05/31 01:01:12;;;;;;;;;8.75;8.75;;;;;18.29;50.00;98690.19;5035565;28;45479;-64
2022/05/31 01:03:41;;;;;;;;;9.00;9.00;;;;;18.29;49.82;98685.69;5035298;28;45556;-64
2022/05/31 01:06:07;;;;;;;;;10.25;9.25;;;;;18.29;49.53;98693.69;5035893;28;45435;-64
2022/05/31 01:08:35;;;;;;;;;8.50;7.50;;;;;18.28;49.93;98691.16;5036334;28;45433;-64
2022/05/31 01:11:01;;;;;;;;;8.00;7.00;;;;;18.29;49.85;98688.34;5036445;28;45347;-64
2022/05/31 01:13:28;;;;;;;;;10.25;10.25;;;;;18.30;49.86;98683.88;5035442;28;45479;-64
2022/05/31 01:16:06;;;;;;;;;7.25;7.25;;;;;18.31;49.85;98691.75;5018194;28;45355;-64
2022/05/31 01:18:32;;;;;;;;;7.25;7.25;;;;;18.33;49.51;98683.63;5030759;28;46192;-64
2022/05/31 01:21:00;;;;;;;;;8.00;8.00;;;;;18.35;49.76;98682.56;5035933;28;45359;-64
2022/05/31 01:23:30;;;;;;;;;8.50;8.50;;;;;18.34;49.47;98682.66;5030085;28;45433;-64
2022/05/31 01:26:05;;;;;;;;;12.25;9.25;;;;;18.32;49.41;98684.59;5034398;28;45449;-64
2022/05/31 01:28:58;;;;;;;;;9.00;8.00;;;;;18.30;49.63;98684.72;5036003;28;45671;-64
2022/05/31 01:31:33;;;;;;;;;7.75;7.75;;;;;18.28;49.72;98684.00;5024362;28;45398;-64
2022/05/31 01:34:18;;;;;;;;;9.00;9.00;;;;;18.27;50.10;98686.78;5031923;28;45363;-64
2022/05/31 01:36:52;;;;;;;;;11.75;10.00;;;;;18.25;50.45;98680.72;5036079;28;45316;-64
2022/05/31 01:39:38;;;;;;;;;11.00;9.00;;;;;18.22;50.36;98687.16;5035844;28;45595;-64
2022/05/31 01:42:06;;;;;;;;;10.50;9.25;;;;;18.21;50.70;98687.28;5034967;28;45417;-64
2022/05/31 01:44:37;;;;;;;;;12.75;9.75;;;;;18.21;50.50;98695.28;4999094;28;45498;-64
2022/05/31 01:47:04;;;;;;;;;10.75;10.25;;;;;18.17;50.27;98696.47;5013262;28;45467;-64
2022/05/31 01:49:36;;;;;;;;;10.00;10.00;;;;;18.14;50.60;98702.91;5025900;28;46299;-64
2022/05/31 01:52:03;;;;;;;;;8.80;8.80;;;;;18.14;51.26;98708.22;5019510;28;45306;-64
2022/05/31 01:54:29;;;;;;;;;8.75;8.75;;;;;18.13;51.42;98709.19;5019454;28;45335;-64
2022/05/31 01:57:02;;;;;;;;;8.75;8.25;;;;;18.16;51.21;98718.78;5021958;28;45344;-64
2022/05/31 01:59:32;;;;;;;;;8.50;7.25;;;;;18.17;51.23;98718.69;5027266;28;45445;-64
2022/05/31 02:02:01;;;;;;;;;11.25;9.50;;;;;18.17;51.14;98716.00;5014113;28;45472;-64
2022/05/31 02:04:26;;;;;;;;;10.50;9.00;;;;;18.16;51.40;98711.63;5015788;28;45399;-64
2022/05/31 02:07:10;;;;;;;;;9.00;9.00;;;;;18.16;51.42;98721.47;5024604;28;45433;-64
2022/05/31 02:09:37;;;;;;;;;9.25;8.00;;;;;18.16;51.48;98721.47;5015677;28;45391;-64
2022/05/31 02:12:06;;;;;;;;;9.75;9.75;;;;;18.14;51.42;98727.75;5026052;28;45301;-64
2022/05/31 02:14:32;;;;;;;;;9.00;9.00;;;;;18.15;51.29;98733.94;5015273;28;45442;-64
2022/05/31 02:16:58;;;;;;;;;9.75;7.50;;;;;18.14;51.57;98729.56;5030355;28;45428;-64
2022/05/31 02:19:25;;;;;;;;;8.75;8.75;;;;;18.13;51.64;98734.06;5031643;28;46237;-64
2022/05/31 02:21:53;;;;;;;;;9.25;8.75;;;;;18.12;51.78;98735.03;5012883;28;45390;-64
2022/05/31 02:24:19;;;;;;;;;8.00;7.50;;;;;18.11;51.98;98733.31;5026933;28;45465;-64
2022/05/31 02:26:45;;;;;;;;;12.00;12.00;;;;;18.09;51.89;98742.44;5022656;28;45575;-64
2022/05/31 02:29:14;;;;;;;;;10.00;9.25;;;;;18.06;52.02;98737.34;5032776;28;45453;-64
2022/05/31 02:31:40;;;;;;;;;10.25;8.50;;;;;18.06;51.86;98750.69;5022308;28;45251;-64
2022/05/31 02:34:07;;;;;;;;;9.00;9.00;;;;;18.05;51.73;98756.97;5018049;28;45444;-61
2022/05/31 02:36:33;;;;;;;;;10.00;9.75;;;;;18.06;51.53;98766.69;5025118;28;45362;-64
2022/05/31 02:38:59;;;;;;;;;9.00;8.25;;;;;18.07;51.47;98768.38;5016993;28;45553;-64
2022/05/31 02:41:25;;;;;;;;;12.00;10.00;;;;;18.07;51.57;98768.38;5019888;28;45399;-64
2022/05/31 02:43:50;;;;;;;;;8.75;8.25;;;;;18.06;51.59;98772.88;5016668;28;45450;-64
2022/05/31 02:46:16;;;;;;;;;8.00;8.00;;;;;18.05;51.50;98756.97;5025292;28;45508;-64
2022/05/31 02:48:41;;;;;;;;;7.50;7.50;;;;;18.05;51.22;98749.81;5018781;28;45405;-66
2022/05/31 02:51:06;;;;;;;;;6.75;6.75;;;;;18.03;51.21;98753.56;5031544;28;45350;-64
2022/05/31 02:53:32;;;;;;;;;9.00;8.75;;;;;18.02;51.89;98771.41;5033845;28;45965;-64
2022/05/31 02:55:58;;;;;;;;;8.50;8.50;;;;;18.04;51.95;98776.63;5032004;28;45354;-64
2022/05/31 02:58:25;;;;;;;;;8.00;8.00;;;;;18.04;51.69;98776.63;5030548;28;45631;-64
2022/05/31 03:00:51;;;;;;;;;9.50;9.50;;;;;18.04;51.52;98798.81;5024232;28;45542;-64
2022/05/31 03:03:16;;;;;;;;;6.50;5.75;;;;;18.03;51.36;98791.78;5023977;28;45505;-64
2022/05/31 03:05:42;;;;;;;;;7.50;7.50;;;;;18.04;51.19;98789.97;5023980;28;45561;-64
2022/05/31 03:08:07;;;;;;;;;8.25;8.25;;;;;18.01;51.37;98777.69;5026052;28;45493;-64
2022/05/31 03:10:36;;;;;;;;;9.00;9.00;;;;;17.98;51.79;98777.91;5011999;28;45455;-64
2022/05/31 03:13:02;;;;;;;;;10.00;10.00;;;;;17.97;51.50;98778.88;5016917;28;45519;-64
2022/05/31 03:15:31;;;;;;;;;10.25;8.50;;;;;17.96;51.56;98781.66;5031172;28;45414;-64
2022/05/31 03:18:19;;;;;;;;;7.50;7.00;;;;;17.94;51.58;98786.25;5020606;28;47560;-64
2022/05/31 03:20:48;;;;;;;;;10.00;10.00;;;;;17.93;52.16;98788.06;5019593;28;45465;-64
2022/05/31 03:23:25;;;;;;;;;8.00;8.00;;;;;17.94;51.73;98783.59;5014996;28;45460;-64
2022/05/31 03:25:53;;;;;;;;;9.00;7.25;;;;;17.94;51.44;98786.25;5022948;28;45411;-64
2022/05/31 03:28:21;;;;;;;;;8.50;8.50;;;;;17.92;51.83;98774.88;5017626;28;45436;-64
2022/05/31 03:30:46;;;;;;;;;8.75;7.25;;;;;17.91;51.65;98771.38;5020257;28;45476;-64
2022/05/31 03:33:13;;;;;;;;;9.75;8.75;;;;;17.92;51.51;98766.88;5026749;28;45468;-64
2022/05/31 03:35:39;;;;;;;;;9.25;8.00;;;;;17.96;51.48;98757.66;5007696;28;45598;-64
2022/05/31 03:38:05;;;;;;;;;9.00;9.00;;;;;17.97;51.05;98770.03;5016524;28;46508;-64
2022/05/31 03:43:15;;;;;;;;;10.00;9.00;;;;;18.03;51.64;98798.91;5023656;28;45442;-64
2022/05/31 03:45:43;;;;;;;;;9.75;8.00;;;;;18.06;52.00;98801.38;5021853;28;45657;-58
2022/05/31 03:48:10;;;;;;;;;11.25;11.25;;;;;18.12;51.54;98793.72;5020589;28;45477;-59
2022/05/31 03:50:38;;;;;;;;;12.00;10.50;;;;;18.19;51.33;98786.13;5014752;28;45967;-59
2022/05/31 03:53:05;;;;;;;;;9.75;8.25;;;;;18.24;51.36;98789.28;5026969;28;45525;-59
2022/05/31 03:55:30;;;;;;;;;11.50;11.25;;;;;18.27;50.99;98790.84;5015997;28;45629;-59
2022/05/31 03:57:56;;;;;;;;;7.00;5.50;;;;;18.30;51.12;98799.47;5020437;28;45758;-59
2022/05/31 04:00:21;;;;;;;;;8.50;8.50;;;;;18.35;50.87;98805.31;5015119;28;45435;-59
2022/05/31 04:02:46;;;;;;;;;14.50;11.25;;;;;18.38;51.00;98805.09;5026757;28;45445;-59
2022/05/31 04:05:13;;;;;;;;;8.50;8.00;;;;;18.42;50.73;98809.22;5011601;28;45509;-59
2022/05/31 04:07:38;;;;;;;;;14.00;11.25;;;;;18.43;51.19;98799.41;5027528;28;46309;-58
2022/05/31 04:10:06;;;;;;;;;6.00;6.00;;;;;18.45;51.09;98802.78;5020727;28;45679;-59
2022/05/31 04:12:38;;;;;;;;;10.00;8.25;;;;;18.47;51.01;98806.19;5021484;28;45483;-59
2022/05/31 04:15:05;;;;;;;;;13.00;13.00;;;;;18.50;51.51;98805.94;5015187;28;45486;-59
2022/05/31 04:17:30;;;;;;;;;11.00;10.00;;;;;18.48;51.60;98800.72;5027063;28;45476;-59
2022/05/31 04:19:56;;;;;;;;;11.25;10.00;;;;;18.47;51.84;98796.34;5018521;28;45548;-59
2022/05/31 04:22:21;;;;;;;;;11.00;10.50;;;;;18.50;51.33;98797.94;5024068;28;45485;-59
2022/05/31 04:24:47;;;;;;;;;9.25;9.25;;;;;18.54;51.53;98795.91;5014494;28;45555;-58
2022/05/31 04:27:16;;;;;;;;;10.25;10.25;;;;;18.58;51.30;98795.53;5026229;28;46542;-58
2022/05/31 04:29:42;;;;;;;;;8.75;8.75;;;;;18.58;51.66;98800.88;5020987;28;45352;-58
2022/05/31 04:32:07;;;;;;;;;16.00;12.00;;;;;18.57;51.86;98807.19;5027223;28;45448;-58
2022/05/31 04:34:33;;;;;;;;;10.50;10.50;;;;;18.57;52.93;98812.53;5016774;28;45465;-59
2022/05/31 04:36:58;;;;;;;;;10.00;10.00;;;;;18.59;53.35;98815.13;5016984;28;45627;-59
2022/05/31 04:39:24;;;;;;;;;12.00;11.25;;;;;18.58;54.15;98826.72;5016799;28;45469;-58
2022/05/31 04:41:49;;;;;;;;;12.00;10.50;;;;;18.57;54.53;98836.56;5026517;28;45425;-58
2022/05/31 04:44:16;;;;;;;;;9.50;9.50;;;;;18.57;54.52;98851.72;5020930;28;45553;-58
2022/05/31 04:46:43;;;;;;;;;11.50;10.25;;;;;18.53;55.45;98839.56;5033779;28;45621;-58
2022/05/31 04:49:08;;;;;;;;;14.25;12.50;;;;;18.45;55.29;98846.34;5023210;28;45477;-59
2022/05/31 04:51:35;;;;;;;;;13.00;10.25;;;;;18.40;55.20;98853.88;5025871;28;45553;-59
2022/05/31 04:54:02;;;;;;;;;9.00;8.25;;;;;18.34;55.70;98858.81;5025715;28;45501;-59
2022/05/31 04:56:27;;;;;;;;;11.25;11.25;;;;;18.31;55.56;98851.88;5026832;28;47064;-59
2022/05/31 04:58:53;;;;;;;;;12.75;12.75;;;;;18.25;56.47;98863.03;5024880;28;45416;-59
2022/05/31 05:01:20;;;;;;;;;13.75;11.75;;;;;18.22;55.89;98878.44;5024105;28;45646;-59
2022/05/31 05:03:46;;;;;;;;;12.00;10.00;;;;;18.19;56.12;98873.31;5016149;28;45663;-59
2022/05/31 05:06:14;;;;;;;;;9.50;9.50;;;;;18.19;57.26;98878.66;5020222;28;45998;-59
2022/05/31 05:08:40;;;;;;;;;13.00;10.00;;;;;18.17;56.45;98880.59;5018758;28;45468;-59
2022/05/31 05:11:11;;;;;;;;;9.00;9.00;;;;;18.15;56.59;98891.38;5022525;28;45401;-59
2022/05/31 05:13:37;;;;;;;;;17.00;15.00;;;;;18.16;57.10;98889.56;5018720;28;45405;-59
2022/05/31 05:16:04;;;;;;;;;12.75;11.00;;;;;18.14;56.29;98887.00;5026867;28;46078;-59
2022/05/31 05:18:30;;;;;;;;;11.25;10.00;;;;;18.11;56.99;98889.88;5020198;28;45474;-59
2022/05/31 05:20:56;;;;;;;;;8.75;8.75;;;;;18.10;55.82;98893.53;5020560;28;45453;-59
2022/05/31 05:23:22;;;;;;;;;8.25;8.25;;;;;18.10;55.89;98901.53;5022976;28;45717;-59
2022/05/31 05:25:49;;;;;;;;;8.00;8.00;;;;;18.12;56.20;98911.13;5019866;28;45677;-59
2022/05/31 05:30:58;;;;;;;;;11.75;7.75;;;;;18.18;54.91;98931.16;5021719;28;45476;-58
2022/05/31 05:33:24;;;;;;;;;12.00;9.75;;;;;18.21;55.09;98948.78;5019933;28;45392;-64
2022/05/31 05:35:49;;;;;;;;;7.00;7.00;;;;;18.17;54.58;98956.16;5018941;28;46309;-65
2022/05/31 05:38:14;;;;;;;;;6.25;6.25;;;;;18.10;54.47;98970.88;5018995;28;45550;-64
2022/05/31 05:40:40;;;;;;;;;6.00;6.00;;;;;18.01;54.13;98975.09;5018277;28;46079;-64
2022/05/31 05:43:09;;;;;;;;;10.25;8.00;;;;;17.89;56.36;98981.34;5022434;28;45561;-64
2022/05/31 05:45:36;;;;;;;;;8.00;5.25;;;;;17.77;57.56;98984.84;5025695;28;45445;-64
2022/05/31 05:48:02;;;;;;;;;11.25;11.00;;;;;17.61;58.87;98987.72;5023328;28;45537;-64
2022/05/31 05:50:28;;;;;;;;;6.00;5.25;;;;;17.46;58.64;98986.16;5019086;28;45449;-64
2022/05/31 05:52:58;;;;;;;;;7.50;6.00;;;;;17.37;59.78;98985.00;5025378;28;45405;-64
2022/05/31 05:55:23;;;;;;;;;11.00;9.25;;;;;17.35;60.68;99004.72;5020974;28;45551;-64
2022/05/31 05:57:49;;;;;;;;;10.75;10.75;;;;;17.32;63.03;99019.09;5015120;28;45500;-64
2022/05/31 06:00:15;;;;;;;;;10.25;10.25;;;;;17.23;61.22;99014.41;5017379;28;45460;-64
2022/05/31 06:02:47;;;;;;;;;8.50;8.25;;;;;17.18;60.96;99037.00;5027352;28;45454;-64
2022/05/31 06:05:17;;;;;;;;;14.25;12.00;;;;;17.09;63.66;99052.63;5017855;28;45719;-64
2022/05/31 06:07:50;;;;;;;;;14.00;12.25;;;;;17.01;64.09;99067.44;5028297;28;45461;-64
2022/05/31 06:10:30;;;;;;;;;12.00;11.50;;;;;16.98;62.21;99064.97;5018910;28;45473;-64
2022/05/31 06:13:13;;;;;;;;;15.25;15.00;;;;;16.84;65.72;99062.38;5027160;28;45652;-64
2022/05/31 06:15:44;;;;;;;;;13.25;13.25;;;;;16.65;66.75;99062.75;5021164;28;45492;-63
2022/05/31 06:18:15;;;;;;;;;12.00;12.00;;;;;16.51;69.68;99068.94;5016972;28;45584;-63
2022/05/31 06:20:47;;;;;;;;;24.00;21.00;;;;;16.31;67.33;99062.25;5020666;28;45413;-63
2022/05/31 06:23:13;;;;;;;;;12.75;12.75;;;;;16.14;70.54;99066.94;5015103;28;45508;-63
2022/05/31 06:25:39;;;;;;;;;16.75;15.75;;;;;15.97;69.64;99060.88;5012380;28;45549;-64
2022/05/31 06:28:05;;;;;;;;;13.00;13.00;;;;;15.83;72.96;99065.38;5027203;28;45421;-64
2022/05/31 06:30:30;;;;;;;;;12.50;12.50;;;;;15.69;69.77;99079.50;5024391;28;45455;-64
2022/05/31 06:32:56;;;;;;;;;15.50;13.25;;;;;15.60;71.15;99085.38;5013868;28;45498;-64
2022/05/31 06:35:21;;;;;;;;;16.00;13.50;;;;;15.52;73.37;99093.81;5024066;28;45423;-63
2022/05/31 06:37:47;;;;;;;;;14.25;12.50;;;;;15.49;72.99;99086.00;5028259;28;45513;-64
2022/05/31 06:40:12;;;;;;;;;7.00;7.00;;;;;15.51;72.77;99093.88;5025977;28;45467;-63
2022/05/31 06:42:38;;;;;;;;;8.25;6.25;;;;;15.53;73.85;99103.47;5028787;28;45270;-63
2022/05/31 06:45:04;;;;;;;;;5.50;5.50;;;;;15.58;72.57;99117.38;5022603;28;45449;-63
2022/05/31 06:47:29;;;;;;;;;9.75;8.25;;;;;15.65;73.40;99115.19;5032383;28;45428;-63
2022/05/31 06:49:55;;;;;;;;;11.50;10.75;;;;;15.70;72.63;99108.66;5020007;28;45410;-63
2022/05/31 06:57:48;;;;;;;;;12.00;12.00;;;;;15.93;73.68;99101.03;5016806;28;45460;-63
2022/05/31 07:00:18;;;;;;;;;13.50;13.50;;;;;16.02;74.95;99104.00;5014207;28;45623;-63
2022/05/31 07:02:44;;;;;;;;;19.50;17.00;;;;;16.11;74.80;99096.38;5024403;28;45332;-63
2022/05/31 07:05:11;;;;;;;;;13.00;13.00;;;;;16.18;74.30;99103.03;5014099;28;45640;-63
2022/05/31 07:07:38;;;;;;;;;18.00;16.25;;;;;16.24;74.79;99107.97;5015329;28;45521;-63
2022/05/31 07:10:06;;;;;;;;;15.50;13.75;;;;;16.28;74.15;99112.13;5013307;28;45530;-63
2022/05/31 07:12:32;;;;;;;;;14.25;11.25;;;;;16.34;74.42;99111.75;5031471;28;45498;-63
2022/05/31 07:14:57;;;;;;;;;13.25;11.75;;;;;16.40;74.00;99119.34;5019799;28;46163;-63
2022/05/31 07:17:23;;;;;;;;;14.50;14.25;;;;;16.46;74.54;99113.63;5009314;28;45391;-63
2022/05/31 07:19:48;;;;;;;;;14.00;13.75;;;;;16.53;74.82;99122.09;5014030;28;45429;-63
2022/05/31 07:22:15;;;;;;;;;15.00;13.25;;;;;16.59;74.51;99119.84;5021940;28;45552;-63
2022/05/31 07:24:40;;;;;;;;;13.50;12.75;;;;;16.66;73.31;99112.38;5013381;28;46180;-63
2022/05/31 07:27:06;;;;;;;;;14.00;12.50;;;;;16.68;73.60;99105.16;5025660;28;45491;-63
2022/05/31 07:29:31;;;;;;;;;17.50;17.50;;;;;16.72;74.67;99096.88;5013328;28;45410;-63
2022/05/31 07:31:57;;;;;;;;;16.00;15.25;;;;;16.77;74.75;99109.00;5025270;28;45471;-63
2022/05/31 07:34:25;;;;;;;;;13.25;13.25;;;;;16.81;75.27;99103.38;5017501;28;45497;-63
2022/05/31 07:36:52;;;;;;;;;15.00;14.75;;;;;16.85;74.80;99107.56;5028521;28;45470;-63
2022/05/31 07:39:19;;;;;;;;;16.75;15.75;;;;;16.87;74.37;99103.00;5025284;28;45383;-63
2022/05/31 07:41:46;;;;;;;;;18.25;16.50;;;;;16.90;74.15;99105.47;5025116;28;45569;-63
2022/05/31 07:44:12;;;;;;;;;13.75;12.00;;;;;16.95;74.58;99113.13;5027593;28;45712;-63
2022/05/31 07:46:38;;;;;;;;;10.75;10.75;;;;;16.99;72.71;99107.50;5015353;28;45621;-63
2022/05/31 07:49:04;;;;;;;;;13.75;12.00;;;;;17.05;72.05;99100.91;5012942;28;45434;-63
2022/05/31 07:51:29;;;;;;;;;7.75;5.25;;;;;17.14;71.42;99094.09;5028112;28;45389;-63
2022/05/31 07:53:55;;;;;;;;;9.75;8.00;;;;;17.22;72.82;99089.97;5015432;28;45503;-63
2022/05/31 07:56:22;;;;;;;;;11.75;11.25;;;;;17.35;73.08;99090.84;5025224;28;45409;-63
2022/05/31 07:58:48;;;;;;;;;11.00;10.00;;;;;17.45;72.67;99083.91;5020321;28;45369;-63
2022/05/31 08:01:19;;;;;;;;;13.75;11.75;;;;;17.54;71.87;99079.78;5031032;28;45363;-63
2022/05/31 08:03:45;;;;;;;;;12.25;12.25;;;;;17.64;71.89;99091.53;5027474;28;48182;-63
2022/05/31 08:06:14;;;;;;;;;16.00;14.25;;;;;17.73;70.63;99090.91;5032268;28;45493;-63
2022/05/31 08:08:39;;;;;;;;;15.25;14.75;;;;;17.81;70.23;99084.16;5014432;28;45421;-63
2022/05/31 08:11:08;;;;;;;;;14.50;13.50;;;;;17.90;70.89;99076.38;5024880;28;45588;-63
2022/05/31 08:13:34;;;;;;;;;14.00;14.00;;;;;18.03;70.61;99073.69;5015446;28;46274;-63
2022/05/31 08:16:00;;;;;;;;;15.25;14.25;;;;;18.17;69.81;99070.03;5024581;28;45489;-63
2022/05/31 08:18:27;;;;;;;;;12.50;11.75;;;;;18.29;68.25;99058.47;5028966;28;45449;-63
2022/05/31 08:21:00;;;;;;;;;8.50;8.00;;;;;18.36;67.10;99047.25;5031329;28;45374;-63
2022/05/31 08:23:25;;;;;;;;;11.75;11.25;;;;;18.38;66.92;99045.31;5008108;28;48054;-63
2022/05/31 08:25:54;;;;;;;;;11.75;11.75;;;;;18.48;66.75;99035.66;5028813;28;45422;-63
2022/05/31 08:28:19;;;;;;;;;13.00;12.00;;;;;18.61;66.68;99026.75;5021087;28;45466;-63
2022/05/31 08:30:45;;;;;;;;;15.25;14.25;;;;;18.74;67.89;99027.56;5021426;28;45478;-63
2022/05/31 08:33:11;;;;;;;;;15.00;11.75;;;;;18.87;67.36;99017.66;5016778;28;45560;-63
2022/05/31 08:35:36;;;;;;;;;11.50;10.25;;;;;19.01;67.96;99014.78;5026068;28;45366;-63
2022/05/31 08:38:01;;;;;;;;;15.50;13.75;;;;;19.11;66.63;99014.94;5025569;28;45466;-63
2022/05/31 08:40:27;;;;;;;;;9.00;8.50;;;;;19.19;66.07;99017.88;5017080;28;45750;-63
2022/05/31 08:42:58;;;;;;;;;8.25;8.25;;;;;19.29;65.64;99016.19;5022233;28;46448;-63
2022/05/31 08:45:54;;;;;;;;;10.00;9.40;;;;;19.35;65.45;99018.41;5018278;28;45381;-63
2022/05/31 08:48:42;;;;;;;;;11.25;10.75;;;;;19.42;65.56;99018.78;5004996;28;45505;-63
2022/05/31 08:57:08;;;;;;;;;8.00;8.00;;;;;19.84;65.31;99004.72;5027289;28;45677;-63
2022/05/31 09:00:17;;;;;;;;;14.50;12.00;;;;;19.98;66.05;99010.78;5023668;28;45386;-63
2022/05/31 09:03:13;;;;;;;;;16.75;15.25;;;;;20.08;65.48;99017.97;5027986;28;45424;-63
2022/05/31 09:06:05;;;;;;;;;15.00;14.25;;;;;20.18;64.96;99005.53;5021342;28;45662;-64
2022/05/31 09:08:53;;;;;;;;;10.60;10.00;;;;;20.30;64.10;99005.50;5012997;28;45554;-64
2022/05/31 09:11:29;;;;;;;;;12.25;11.00;;;;;20.45;64.08;99012.28;5025317;28;45399;-64
2022/05/31 09:14:16;;;;;;;;;14.75;13.00;;;;;20.59;64.05;99004.00;5022869;28;45394;-64
2022/05/31 09:16:46;;;;;;;;;12.25;12.25;;;;;20.71;63.58;99005.66;5016521;28;48529;-64
2022/05/31 09:19:35;;;;;;;;;10.20;9.20;;;;;20.79;62.10;99013.03;5021273;28;45485;-65
2022/05/31 09:22:01;;;;;;;;;9.00;9.00;;;;;20.83;61.00;99004.59;5030127;28;45345;-64
2022/05/31 09:24:28;;;;;;;;;9.00;7.25;;;;;20.85;61.19;99008.00;5015575;28;45466;-64
2022/05/31 09:27:28;;;;;;;;;7.25;7.25;;;;;20.85;61.07;99007.16;5021431;28;46413;-64
2022/05/31 09:30:28;;;;;;;;;8.00;8.00;;;;;20.88;60.58;99010.44;5004807;28;45390;-64
2022/05/31 09:33:19;;;;;;;;;6.25;2.75;;;;;20.90;60.08;99002.28;5019036;28;45553;-64
2022/05/31 09:36:21;;;;;;;;;7.50;7.50;;;;;20.94;60.17;99009.09;5008161;28;45501;-64
2022/05/31 09:38:55;;;;;;;;;7.40;7.40;;;;;20.99;60.10;99014.03;5016488;28;46262;-64
2022/05/31 09:41:32;;;;;;;;;8.80;7.00;;;;;21.06;59.46;99013.41;5019705;28;45412;-65
2022/05/31 09:44:10;;;;;;;;;6.20;6.20;;;;;21.10;59.07;99016.69;5035237;28;45531;-64
2022/05/31 09:46:46;;;;;;;;;9.00;9.00;;;;;21.15;59.77;99017.97;5024448;28;45366;-64
2022/05/31 09:49:33;;;;;;;;;9.00;8.00;;;;;21.23;58.59;99009.31;5031283;28;46355;-64
2022/05/31 09:51:59;;;;;;;;;7.80;7.00;;;;;21.34;58.24;99011.06;5029618;28;45548;-64
2022/05/31 09:57:28;;;;;;;;;7.75;7.50;;;;;21.70;57.93;98999.81;5030379;28;45556;-64
2022/05/31 10:00:12;;;;;;;;;8.00;7.25;;;;;21.86;57.00;98996.63;5028403;28;45787;-64
2022/05/31 10:02:37;;;;;;;;;7.00;7.00;;;;;21.94;56.41;98992.31;5033387;28;45461;-64
2022/05/31 10:05:21;;;;;;;;;8.75;8.00;;;;;22.03;55.83;98993.34;5034293;28;45474;-65
2022/05/31 10:07:48;;;;;;;;;7.50;5.25;;;;;22.10;55.52;98997.19;5027018;28;45366;-64
2022/05/31 10:10:17;;;;;;;;;7.00;7.00;;;;;22.20;55.81;99000.72;5033744;28;46233;-64
2022/05/31 10:12:54;;;;;;;;;8.60;7.60;;;;;22.26;56.25;98985.91;5025925;28;45338;-64
2022/05/31 10:15:44;;;;;;;;;8.00;6.50;;;;;22.22;56.49;98984.47;5013916;28;45509;-64
2022/05/31 10:18:25;;;;;;;;;9.25;9.00;;;;;22.24;56.91;98985.19;5023747;28;45488;-64
2022/05/31 10:20:55;;;;;;;;;6.50;6.50;;;;;22.28;55.72;98987.47;5015776;28;48425;-64
2022/05/31 10:23:23;;;;;;;;;6.00;5.00;;;;;22.29;56.22;98988.28;5013434;28;45518;-64
2022/05/31 10:25:56;;;;;;;;;7.00;7.00;;;;;22.28;55.14;98984.78;5033834;28;45362;-64
2022/05/31 10:28:31;;;;;;;;;8.75;7.00;;;;;22.36;55.76;98988.59;5033667;28;45418;-64
2022/05/31 10:31:35;;;;;;;;;7.00;5.00;;;;;22.46;55.21;98982.25;5033642;28;46693;-64
2022/05/31 10:34:34;;;;;;;;;7.40;7.40;;;;;22.52;54.18;98970.94;5015697;28;45557;-64
2022/05/31 10:37:03;;;;;;;;;11.75;11.00;;;;;22.61;53.92;98972.81;5015538;28;45540;-64
2022/05/31 10:39:32;;;;;;;;;7.25;7.00;;;;;22.69;53.88;98973.91;5024210;28;45500;-64
2022/05/31 10:42:00;;;;;;;;;8.75;7.00;;;;;22.74;53.72;98969.81;5014000;28;45497;-64
2022/05/31 10:44:32;;;;;;;;;7.60;7.60;;;;;22.81;53.73;98956.69;5013663;28;45413;-64
2022/05/31 10:47:10;;;;;;;;;9.00;8.00;;;;;22.91;53.89;98950.31;5013941;28;45423;-64
2022/05/31 10:49:38;;;;;;;;;7.00;7.00;;;;;23.00;53.68;98953.97;5013797;28;45484;-64
2022/05/31 10:52:25;;;;;;;;;9.80;9.20;;;;;23.11;52.98;98952.97;5013282;28;46511;-64
2022/05/31 10:55:28;;;;;;;;;8.20;8.20;;;;;23.27;53.54;98950.53;5013711;28;45713;-64
2022/05/31 10:58:18;;;;;;;;;5.25;5.00;;;;;23.35;53.74;98960.56;5002541;28;45463;-64
2022/05/31 11:00:54;;;;;;;;;10.50;9.50;;;;;23.32;54.16;98967.06;5013525;28;45311;-65
2022/05/31 11:03:44;;;;;;;;;15.00;12.00;;;;;23.30;53.84;98959.13;5029850;28;45530;-64
2022/05/31 11:06:19;;;;;;;;;9.80;9.80;;;;;23.29;53.88;98952.06;5024405;28;45524;-64
2022/05/31 11:12:53;;;;;;;;;13.50;13.50;;;;;23.46;53.57;98957.72;5008107;28;45362;-64
2022/05/31 11:15:28;;;;;;;;;11.75;11.75;;;;;23.51;52.56;98953.59;5018943;28;46531;-63
2022/05/31 11:18:15;;;;;;;;;11.00;10.80;;;;;23.48;52.59;98950.31;5019870;28;45442;-63
2022/05/31 11:21:03;;;;;;;;;9.75;8.25;;;;;23.53;52.55;98953.44;5023654;28;45487;-63
2022/05/31 11:23:47;;;;;;;;;10.00;7.00;;;;;23.55;52.35;98956.84;5013839;28;45507;-63
2022/05/31 11:26:24;;;;;;;;;10.75;9.50;;;;;23.59;52.08;98942.94;5014299;28;45683;-64
2022/05/31 11:28:57;;;;;;;;;7.20;6.60;;;;;23.62;52.05;98939.97;4999690;28;45438;-63
2022/05/31 11:31:26;;;;;;;;;8.75;8.75;;;;;23.62;52.31;98936.44;5016809;28;45453;-63
2022/05/31 11:34:12;;;;;;;;;10.50;9.75;;;;;23.59;52.18;98942.09;5016529;28;45571;-64
2022/05/31 11:36:49;;;;;;;;;10.00;10.00;;;;;23.50;52.51;98945.63;5017317;28;45382;-63
2022/05/31 11:39:47;;;;;;;;;12.00;10.80;;;;;23.40;52.59;98939.44;5017391;28;45422;-65
2022/05/31 11:42:30;;;;;;;;;10.50;9.75;;;;;23.30;52.51;98934.06;5017080;28;45506;-65
2022/05/31 11:45:02;;;;;;;;;9.50;9.50;;;;;23.16;52.76;98939.94;5016838;28;45361;-64
2022/05/31 11:47:40;;;;;;;;;7.80;7.80;;;;;23.00;52.75;98935.16;5016095;28;46191;-64
2022/05/31 11:50:17;;;;;;;;;10.00;8.40;;;;;22.80;53.02;98944.22;5017374;28;45296;-64
2022/05/31 11:53:03;;;;;;;;;7.00;7.00;;;;;22.62;53.25;98957.53;5016950;28;45382;-64
2022/05/31 11:55:36;;;;;;;;;9.00;8.00;;;;;22.43;53.21;98971.81;4998942;28;46033;-64
2022/05/31 11:58:10;;;;;;;;;8.25;8.25;;;;;22.12;54.75;98986.31;5016616;28;45323;-64
2022/05/31 12:01:02;;;;;;;;;7.20;7.20;;;;;21.78;54.78;98996.47;5016617;28;45426;-64
2022/05/31 12:03:46;;;;;;;;;9.00;7.75;;;;;21.48;55.52;99000.84;5020619;28;45417;-64
2022/05/31 12:06:40;;;;;;;;;6.00;6.00;;;;;21.22;57.51;98996.88;5016785;28;45522;-64
2022/05/31 12:09:14;;;;;;;;;7.75;7.00;;;;;20.97;59.02;99011.47;5002713;28;46503;-63